Time;durP1;ratioP1;P1;durP2;ratioP2;P2;SDS_P1;SDS_P2;PMS_P1;PMS_P2;Temp;Humidity;BMP_temperature;BMP_pressure;BME280_temperature;BME280_humidity;BME280_pressure;Samples;Min_cycle;Max_cycle;Signal;HPM_P1;HPM_P2
2022/09/10 00:00:33;;;;;;;15.40;10.77;;;15.40;99.90;;;;;;5060173;28;20108;-78
2022/09/10 00:03:01;;;;;;;15.50;13.27;;;15.30;99.90;;;;;;5076370;28;20085;-80
2022/09/10 00:05:27;;;;;;;15.10;12.05;;;16.30;99.90;;;;;;5047756;28;20037;-78
2022/09/10 00:07:53;;;;;;;17.52;12.60;;;15.40;99.90;;;;;;5068725;28;20029;-80
2022/09/10 00:10:19;;;;;;;17.52;12.18;;;15.20;99.90;;;;;;5068174;28;20044;-77
2022/09/10 00:12:47;;;;;;;18.42;13.50;;;15.30;99.90;;;;;;5062443;28;20021;-79
2022/09/10 00:15:16;;;;;;;16.45;12.23;;;15.30;99.90;;;;;;5050892;28;20073;-78
2022/09/10 00:17:50;;;;;;;21.05;13.95;;;15.50;99.90;;;;;;5066901;28;20064;-78
2022/09/10 00:20:15;;;;;;;17.95;12.57;;;15.50;99.90;;;;;;5071845;28;20055;-81
2022/09/10 00:22:44;;;;;;;19.40;13.93;;;15.20;99.90;;;;;;5060547;28;20119;-79
2022/09/10 00:25:10;;;;;;;17.42;13.00;;;15.30;99.90;;;;;;5057567;28;20055;-77
2022/09/10 00:27:36;;;;;;;17.33;13.23;;;15.40;99.90;;;;;;5056545;28;20179;-78
2022/09/10 00:30:02;;;;;;;18.50;13.57;;;15.50;99.90;;;;;;5069353;28;20045;-79
2022/09/10 00:32:28;;;;;;;21.40;15.68;;;15.50;99.90;;;;;;5071443;28;20104;-79
2022/09/10 00:34:54;;;;;;;22.75;16.55;;;15.40;99.90;;;;;;5069134;28;20411;-78
2022/09/10 00:37:22;;;;;;;20.23;15.50;;;15.40;99.90;;;;;;5071452;28;20096;-81
2022/09/10 00:39:48;;;;;;;19.02;14.52;;;15.50;99.90;;;;;;5066543;28;20056;-79
2022/09/10 00:42:15;;;;;;;22.80;16.80;;;15.40;99.90;;;;;;5066348;28;20040;-79
2022/09/10 00:44:43;;;;;;;29.23;17.13;;;15.50;99.90;;;;;;5067450;28;20067;-78
2022/09/10 00:47:27;;;;;;;22.48;16.08;;;15.70;99.90;;;;;;5067478;28;20497;-79
2022/09/10 00:50:12;;;;;;;28.10;17.02;;;15.70;99.90;;;;;;5068969;28;20041;-80
2022/09/10 00:52:38;;;;;;;23.05;17.77;;;15.50;99.90;;;;;;5071791;28;20041;-79
2022/09/10 00:55:05;;;;;;;22.38;16.92;;;15.50;99.90;;;;;;5070796;28;20044;-79
2022/09/10 00:57:34;;;;;;;27.95;16.48;;;15.70;99.90;;;;;;5068332;28;20041;-80
2022/09/10 01:00:07;;;;;;;24.17;17.48;;;15.70;99.90;;;;;;5050382;28;20072;-79
2022/09/10 01:02:35;;;;;;;24.13;17.65;;;15.70;99.90;;;;;;5070183;28;20037;-79
2022/09/10 01:05:06;;;;;;;20.73;14.93;;;15.60;99.90;;;;;;5069452;28;20055;-79
2022/09/10 01:07:35;;;;;;;25.38;16.50;;;15.60;99.90;;;;;;5070456;28;20044;-80
2022/09/10 01:11:00;;;;;;;21.27;17.35;;;15.60;99.90;;;;;;5065419;28;20037;-78
2022/09/10 01:13:45;;;;;;;24.05;16.67;;;15.70;99.90;;;;;;5060303;28;20490;-80
2022/09/10 01:16:22;;;;;;;30.92;19.60;;;15.90;99.90;;;;;;5068836;28;20426;-79
2022/09/10 01:18:58;;;;;;;29.08;19.45;;;15.80;99.90;;;;;;5068703;28;20041;-77
2022/09/10 01:21:45;;;;;;;28.75;17.92;;;15.40;99.90;;;;;;5046914;28;20065;-78
2022/09/10 01:24:44;;;;;;;28.27;19.17;;;15.60;99.90;;;;;;5049846;28;20040;-80
2022/09/10 01:27:31;;;;;;;21.75;16.25;;;15.60;99.90;;;;;;5069167;28;20049;-80
2022/09/10 01:30:03;;;;;;;27.05;19.30;;;15.60;99.90;;;;;;5064308;28;20449;-77
2022/09/10 01:32:45;;;;;;;29.92;20.40;;;15.60;99.90;;;;;;5066262;28;20064;-80
2022/09/10 01:35:17;;;;;;;27.65;18.50;;;15.80;99.90;;;;;;5064116;28;20123;-77
2022/09/10 01:38:09;;;;;;;26.45;19.30;;;15.50;99.90;;;;;;5074632;28;20032;-78
2022/09/10 01:40:48;;;;;;;36.40;20.42;;;15.50;99.90;;;;;;5069729;28;20041;-79
2022/09/10 01:43:17;;;;;;;22.83;17.83;;;15.30;99.90;;;;;;5051206;28;20029;-82
2022/09/10 01:46:20;;;;;;;31.05;20.77;;;15.80;99.90;;;;;;5070049;28;20029;-80
2022/09/10 01:49:22;;;;;;;27.58;20.05;;;15.70;99.90;;;;;;5062658;28;20041;-77
2022/09/10 01:52:17;;;;;;;28.88;21.40;;;15.70;99.90;;;;;;5072366;28;20041;-80
2022/09/10 01:55:11;;;;;;;26.25;19.73;;;16.70;99.90;;;;;;5063350;28;20118;-78
2022/09/10 01:57:36;;;;;;;;;;;15.70;99.90;;;;;;5056398;28;20041;-78
2022/09/10 02:00:12;;;;;;;28.33;20.70;;;15.60;99.90;;;;;;5055982;28;19986;-78
2022/09/10 02:03:10;;;;;;;29.40;20.70;;;15.70;99.90;;;;;;5055712;28;20045;-77
2022/09/10 02:05:37;;;;;;;34.05;22.75;;;15.60;99.90;;;;;;5038783;28;20037;-77
2022/09/10 02:08:15;;;;;;;33.97;21.98;;;15.60;99.90;;;;;;5038436;28;20040;-78
2022/09/10 02:10:59;;;;;;;30.80;21.10;;;15.60;99.90;;;;;;5056138;28;20421;-77
2022/09/10 02:13:26;;;;;;;28.88;20.77;;;16.30;99.90;;;;;;5040981;28;20040;-78
2022/09/10 02:15:52;;;;;;;32.42;22.88;;;16.50;99.90;;;;;;5046481;28;20037;-77
2022/09/10 02:18:20;;;;;;;32.47;23.30;;;15.70;99.90;;;;;;5063558;28;20111;-79
2022/09/10 02:20:48;;;;;;;35.67;22.70;;;15.60;99.90;;;;;;5063162;28;20029;-78
2022/09/10 02:23:17;;;;;;;31.42;23.35;;;16.60;99.90;;;;;;5062654;28;20033;-78
2022/09/10 02:25:44;;;;;;;31.63;22.80;;;16.70;99.90;;;;;;5062219;28;20096;-78
2022/09/10 02:28:09;;;;;;;30.33;22.55;;;15.50;99.90;;;;;;5061013;28;20609;-78
2022/09/10 02:30:35;;;;;;;31.30;22.55;;;15.50;99.90;;;;;;5044354;28;20075;-78
2022/09/10 02:33:02;;;;;;;30.83;22.83;;;15.60;99.90;;;;;;5062380;28;20048;-77
2022/09/10 02:35:28;;;;;;;35.13;24.13;;;15.60;99.90;;;;;;5060577;28;20048;-78
2022/09/10 02:37:54;;;;;;;30.17;21.80;;;15.50;99.90;;;;;;5062027;28;20025;-78
2022/09/10 02:40:20;;;;;;;30.98;22.27;;;15.40;99.90;;;;;;5061603;28;20483;-78
2022/09/10 02:42:45;;;;;;;29.05;21.05;;;15.50;99.90;;;;;;5059987;28;20127;-78
2022/09/10 02:45:12;;;;;;;32.03;22.85;;;15.30;99.90;;;;;;5062671;28;20117;-78
2022/09/10 02:47:38;;;;;;;31.25;21.73;;;15.40;99.90;;;;;;5044718;28;20064;-78
2022/09/10 02:50:06;;;;;;;29.48;22.15;;;15.80;99.90;;;;;;5058014;28;20499;-77
2022/09/10 02:52:32;;;;;;;34.88;24.38;;;15.60;99.90;;;;;;5055362;28;20132;-78
2022/09/10 02:54:58;;;;;;;36.70;23.67;;;15.20;99.90;;;;;;5037282;28;20037;-78
2022/09/10 02:57:25;;;;;;;32.38;22.80;;;15.50;99.90;;;;;;5037328;28;20044;-78
2022/09/10 02:59:52;;;;;;;30.40;23.23;;;15.40;99.90;;;;;;5053501;28;20043;-77
2022/09/10 03:02:19;;;;;;;39.67;26.35;;;15.60;99.90;;;;;;5055507;28;20037;-78
2022/09/10 03:04:44;;;;;;;36.42;22.08;;;15.10;99.90;;;;;;5055213;28;20032;-77
2022/09/10 03:07:10;;;;;;;34.70;23.83;;;15.20;99.90;;;;;;5077431;28;20090;-77
2022/09/10 03:09:37;;;;;;;31.15;25.05;;;15.40;99.90;;;;;;5075507;28;20059;-77
2022/09/10 03:12:04;;;;;;;35.20;24.90;;;15.40;99.90;;;;;;5073614;28;20037;-77
2022/09/10 03:14:29;;;;;;;37.05;24.95;;;15.30;99.90;;;;;;5060324;28;20065;-77
2022/09/10 03:16:57;;;;;;;32.92;23.20;;;14.90;99.90;;;;;;5055624;28;20494;-77
2022/09/10 03:19:23;;;;;;;35.70;24.40;;;15.10;99.90;;;;;;5055340;28;20388;-77
2022/09/10 03:21:48;;;;;;;32.00;24.25;;;15.10;99.90;;;;;;5055972;28;20040;-77
2022/09/10 03:24:14;;;;;;;32.03;23.42;;;15.10;99.90;;;;;;5054013;28;20395;-77
2022/09/10 03:26:40;;;;;;;35.55;24.30;;;15.10;99.90;;;;;;5054029;28;20414;-77
2022/09/10 03:29:06;;;;;;;41.17;26.13;;;15.10;99.90;;;;;;5053825;28;20041;-77
2022/09/10 03:31:31;;;;;;;34.55;24.42;;;15.40;99.90;;;;;;5038163;28;20465;-77
2022/09/10 03:33:58;;;;;;;39.67;26.20;;;15.00;99.90;;;;;;5054762;28;20072;-77
2022/09/10 03:36:27;;;;;;;32.88;23.30;;;14.90;99.90;;;;;;5067147;28;20053;-77
2022/09/10 03:38:52;;;;;;;37.08;25.83;;;15.10;99.90;;;;;;5078917;28;20025;-77
2022/09/10 03:41:18;;;;;;;34.80;24.40;;;15.30;99.90;;;;;;5081581;28;20063;-76
2022/09/10 03:43:43;;;;;;;38.40;24.58;;;15.10;99.90;;;;;;5081167;28;20031;-77
2022/09/10 03:46:10;;;;;;;30.60;23.20;;;15.20;99.90;;;;;;5063875;28;20052;-77
2022/09/10 03:48:37;;;;;;;38.67;26.15;;;15.20;99.90;;;;;;5074103;28;20041;-78
2022/09/10 03:51:03;;;;;;;32.03;23.45;;;15.00;99.90;;;;;;5048394;28;20068;-78
2022/09/10 03:53:29;;;;;;;38.17;24.23;;;15.20;99.90;;;;;;5048511;28;20037;-78
2022/09/10 03:55:55;;;;;;;36.45;25.52;;;15.00;99.90;;;;;;5066680;28;20036;-78
2022/09/10 03:58:21;;;;;;;33.83;22.55;;;15.40;99.90;;;;;;5065493;28;20116;-78
2022/09/10 04:00:46;;;;;;;35.75;24.98;;;15.10;99.90;;;;;;5049221;28;20064;-78
2022/09/10 04:03:16;;;;;;;35.72;24.35;;;15.30;99.90;;;;;;5065964;28;20091;-78
2022/09/10 04:05:44;;;;;;;34.08;24.45;;;15.10;99.90;;;;;;5066238;28;20037;-78
2022/09/10 04:08:11;;;;;;;37.17;25.13;;;15.30;99.90;;;;;;5065303;28;20037;-78
2022/09/10 04:10:38;;;;;;;38.45;24.52;;;15.50;99.90;;;;;;5065979;28;20101;-78
2022/09/10 04:13:03;;;;;;;36.65;25.52;;;16.60;99.90;;;;;;5067613;28;20041;-78
2022/09/10 04:15:29;;;;;;;32.00;24.42;;;15.20;99.90;;;;;;5067799;28;20039;-78
2022/09/10 04:17:55;;;;;;;33.70;24.25;;;15.40;99.90;;;;;;5066104;28;20033;-78
2022/09/10 04:20:22;;;;;;;33.95;23.83;;;15.50;99.90;;;;;;5066691;28;20037;-78
2022/09/10 04:22:50;;;;;;;41.05;24.67;;;15.00;99.90;;;;;;5067548;28;20048;-78
2022/09/10 04:25:17;;;;;;;32.30;23.92;;;15.30;99.90;;;;;;5065794;28;20052;-78
2022/09/10 04:27:44;;;;;;;35.67;24.10;;;16.30;99.90;;;;;;5049311;28;20104;-78
2022/09/10 04:30:10;;;;;;;33.42;25.00;;;16.80;99.90;;;;;;5066138;28;20561;-78
2022/09/10 04:32:36;;;;;;;34.33;24.92;;;15.30;99.90;;;;;;5049031;28;20498;-78
2022/09/10 04:35:03;;;;;;;32.13;23.65;;;15.40;99.90;;;;;;5065376;28;20120;-78
2022/09/10 04:37:29;;;;;;;33.28;23.70;;;15.40;99.90;;;;;;5065128;28;20071;-79
2022/09/10 04:39:55;;;;;;;36.53;22.85;;;15.20;99.90;;;;;;5048900;28;20632;-78
2022/09/10 04:42:20;;;;;;;36.95;23.73;;;15.20;99.90;;;;;;5066051;28;20055;-77
2022/09/10 04:44:46;;;;;;;34.13;23.30;;;15.10;99.90;;;;;;5064764;28;20044;-77
2022/09/10 04:47:12;;;;;;;31.20;23.05;;;15.30;99.90;;;;;;5065685;28;20044;-77
2022/09/10 04:49:38;;;;;;;34.28;22.77;;;15.00;99.90;;;;;;5064482;28;20037;-78
2022/09/10 04:52:03;;;;;;;36.40;22.52;;;15.30;99.90;;;;;;5064260;28;20037;-78
2022/09/10 04:54:29;;;;;;;30.50;22.17;;;15.30;99.90;;;;;;5063450;28;20032;-78
2022/09/10 04:56:55;;;;;;;28.20;21.63;;;15.20;99.90;;;;;;5065618;28;20037;-78
2022/09/10 04:59:21;;;;;;;33.88;23.02;;;15.20;99.90;;;;;;5048281;28;20079;-78
2022/09/10 05:01:49;;;;;;;31.70;22.15;;;15.30;99.90;;;;;;5048455;28;20110;-78
2022/09/10 05:04:18;;;;;;;29.58;21.02;;;16.10;99.90;;;;;;5065709;28;20064;-78
2022/09/10 05:06:44;;;;;;;27.75;21.52;;;15.20;99.90;;;;;;5063932;28;20037;-78
2022/09/10 05:09:10;;;;;;;36.40;22.92;;;15.30;99.90;;;;;;5065247;28;20040;-77
2022/09/10 05:11:36;;;;;;;35.38;22.27;;;15.20;99.90;;;;;;5063938;28;20123;-78
2022/09/10 05:14:02;;;;;;;32.53;22.83;;;15.30;99.90;;;;;;5047031;28;20068;-78
2022/09/10 05:16:27;;;;;;;32.10;21.92;;;15.20;99.90;;;;;;5065485;28;20037;-78
2022/09/10 05:18:53;;;;;;;32.38;22.20;;;15.20;99.90;;;;;;5047410;28;20029;-77
2022/09/10 05:21:18;;;;;;;31.45;20.75;;;15.30;99.90;;;;;;5046371;28;20083;-78
2022/09/10 05:23:44;;;;;;;32.88;21.20;;;15.20;99.90;;;;;;5046224;28;20032;-78
2022/09/10 05:26:10;;;;;;;28.42;20.55;;;15.50;99.90;;;;;;5065003;28;20450;-78
2022/09/10 05:28:36;;;;;;;29.98;21.15;;;15.40;99.90;;;;;;5060776;22;20517;-72
2022/09/10 05:31:02;;;;;;;30.90;22.15;;;15.30;99.90;;;;;;5052151;28;20045;-72
2022/09/10 05:33:27;;;;;;;33.38;22.08;;;15.50;99.90;;;;;;5053514;28;20036;-72
2022/09/10 05:35:53;;;;;;;28.25;19.58;;;15.70;99.90;;;;;;5053133;28;20033;-72
2022/09/10 05:38:19;;;;;;;30.33;21.02;;;15.80;99.90;;;;;;5053243;28;20498;-72
2022/09/10 05:40:44;;;;;;;29.55;20.55;;;15.60;99.90;;;;;;5053287;28;20033;-72
2022/09/10 05:43:13;;;;;;;27.38;20.42;;;15.50;99.90;;;;;;5035137;28;20037;-72
2022/09/10 05:45:38;;;;;;;29.77;20.42;;;15.60;99.90;;;;;;5051714;28;20048;-72
2022/09/10 05:48:04;;;;;;;27.80;18.58;;;15.40;99.90;;;;;;5035436;28;20036;-72
2022/09/10 05:50:29;;;;;;;24.10;19.75;;;15.60;99.90;;;;;;5052069;28;20090;-73
2022/09/10 05:52:55;;;;;;;30.42;20.40;;;15.40;99.90;;;;;;5053087;28;20083;-72
2022/09/10 05:55:21;;;;;;;29.63;20.27;;;15.50;99.90;;;;;;5051608;28;20037;-72
2022/09/10 05:57:47;;;;;;;26.67;19.02;;;15.60;99.90;;;;;;5052883;28;20025;-72
2022/09/10 06:00:14;;;;;;;29.38;21.00;;;15.40;99.90;;;;;;5051764;28;20171;-73
2022/09/10 06:02:40;;;;;;;30.38;20.45;;;15.40;99.90;;;;;;5051264;28;20135;-72
2022/09/10 06:05:07;;;;;;;30.88;19.38;;;15.50;99.90;;;;;;5051395;28;20132;-72
2022/09/10 06:07:33;;;;;;;29.92;21.58;;;15.50;99.90;;;;;;5051454;28;20071;-72
2022/09/10 06:10:01;;;;;;;32.78;18.45;;;15.70;99.90;;;;;;5051593;28;20114;-72
2022/09/10 06:12:27;;;;;;;28.80;20.13;;;15.90;99.90;;;;;;5050683;28;20049;-72
2022/09/10 06:14:52;;;;;;;34.90;20.23;;;15.50;99.90;;;;;;5052372;28;20036;-74
2022/09/10 06:17:18;;;;;;;23.10;16.83;;;16.10;99.90;;;;;;5051323;28;20111;-74
2022/09/10 06:19:45;;;;;;;28.05;19.65;;;15.70;99.90;;;;;;5051425;28;20041;-74
2022/09/10 06:22:11;;;;;;;30.45;20.27;;;15.50;99.90;;;;;;5051034;28;20645;-74
2022/09/10 06:24:38;;;;;;;29.77;20.15;;;15.90;99.90;;;;;;5051006;28;20406;-74
2022/09/10 06:27:04;;;;;;;30.67;21.23;;;15.70;99.90;;;;;;5052197;28;20037;-74
2022/09/10 06:29:31;;;;;;;27.48;19.90;;;15.70;99.90;;;;;;5051310;28;20070;-74
2022/09/10 06:31:58;;;;;;;28.67;19.38;;;15.80;99.90;;;;;;5034050;28;20083;-72
2022/09/10 06:34:24;;;;;;;25.73;17.90;;;15.90;99.90;;;;;;5051913;28;20033;-73
2022/09/10 06:36:50;;;;;;;27.63;18.77;;;16.00;99.90;;;;;;5034136;28;20098;-73
2022/09/10 06:39:16;;;;;;;26.20;18.65;;;15.80;99.90;;;;;;5052272;28;20041;-73
2022/09/10 06:41:42;;;;;;;24.40;18.30;;;16.20;99.90;;;;;;5050989;28;20399;-73
2022/09/10 06:44:11;;;;;;;28.58;18.58;;;15.80;99.90;;;;;;5050606;28;20055;-73
2022/09/10 06:46:37;;;;;;;29.52;20.48;;;16.20;99.90;;;;;;5050749;28;20121;-73
2022/09/10 06:49:05;;;;;;;23.30;17.25;;;16.10;99.90;;;;;;5050588;28;20546;-73
2022/09/10 06:51:32;;;;;;;26.83;18.38;;;16.30;99.90;;;;;;5050326;28;20494;-73
2022/09/10 06:53:57;;;;;;;31.70;20.85;;;16.10;99.90;;;;;;5050238;28;20115;-73
2022/09/10 06:56:23;;;;;;;35.90;18.65;;;16.40;99.90;;;;;;5051877;28;20175;-75
2022/09/10 06:58:49;;;;;;;27.60;19.48;;;16.10;99.90;;;;;;5051824;28;20049;-74
2022/09/10 07:01:20;;;;;;;33.42;18.77;;;16.10;99.90;;;;;;5050647;28;20043;-74
2022/09/10 07:03:46;;;;;;;26.98;17.52;;;16.20;99.90;;;;;;5050537;28;20080;-74
2022/09/10 07:06:14;;;;;;;22.77;16.75;;;17.00;99.90;;;;;;5033207;28;20095;-74
2022/09/10 07:08:40;;;;;;;28.55;17.33;;;16.50;99.90;;;;;;5051355;28;20037;-75
2022/09/10 07:11:10;;;;;;;28.13;18.17;;;16.30;99.90;;;;;;5051172;28;20039;-74
2022/09/10 07:13:36;;;;;;;25.27;17.52;;;16.20;99.90;;;;;;5048354;28;20048;-74
2022/09/10 07:16:02;;;;;;;27.25;18.98;;;16.50;99.90;;;;;;5032995;28;20029;-74
2022/09/10 07:18:29;;;;;;;27.15;18.48;;;16.30;99.90;;;;;;5033000;28;20410;-75
2022/09/10 07:21:09;;;;;;;29.63;18.48;;;16.40;99.90;;;;;;5033046;28;20029;-74
2022/09/10 07:23:34;;;;;;;28.63;17.33;;;16.90;99.90;;;;;;5048648;28;20048;-74
2022/09/10 07:26:05;;;;;;;26.15;16.73;;;16.40;99.90;;;;;;5049303;28;20407;-74
2022/09/10 07:28:31;;;;;;;32.00;20.00;;;16.30;99.90;;;;;;5049422;28;20048;-74
2022/09/10 07:30:57;;;;;;;27.83;18.83;;;16.10;99.90;;;;;;5050498;28;20033;-74
2022/09/10 07:33:23;;;;;;;30.65;16.70;;;16.20;99.90;;;;;;5050723;28;20029;-75
2022/09/10 07:35:49;;;;;;;33.28;16.70;;;16.10;99.90;;;;;;5050622;28;20509;-75
2022/09/10 07:38:15;;;;;;;28.17;18.65;;;16.40;99.90;;;;;;5032877;28;20455;-75
2022/09/10 07:40:42;;;;;;;25.58;18.05;;;16.30;99.90;;;;;;5038366;28;20037;-76
2022/09/10 07:43:08;;;;;;;23.40;17.55;;;16.40;99.90;;;;;;5038973;28;20603;-74
2022/09/10 07:45:34;;;;;;;25.98;17.50;;;16.70;99.90;;;;;;5050593;28;20095;-74
2022/09/10 07:47:59;;;;;;;27.85;18.88;;;16.60;99.90;;;;;;5050199;28;20044;-74
2022/09/10 07:50:25;;;;;;;25.42;18.65;;;16.70;99.90;;;;;;5050512;28;20196;-74
2022/09/10 07:52:51;;;;;;;26.27;17.05;;;16.40;99.90;;;;;;5051360;28;20520;-74
2022/09/10 07:55:17;;;;;;;21.33;16.48;;;17.20;99.90;;;;;;5050332;28;20086;-75
2022/09/10 07:57:44;;;;;;;23.75;16.65;;;16.80;99.90;;;;;;5049769;28;20120;-74
2022/09/10 08:00:13;;;;;;;24.88;16.52;;;16.90;99.90;;;;;;5049652;28;20122;-74
2022/09/10 08:02:43;;;;;;;28.70;18.83;;;16.90;99.90;;;;;;5050934;28;20413;-74
2022/09/10 08:05:10;;;;;;;31.27;17.83;;;16.90;99.90;;;;;;5049584;28;20580;-74
2022/09/10 08:07:39;;;;;;;23.45;16.27;;;17.20;99.90;;;;;;5050872;28;20048;-74
2022/09/10 08:10:08;;;;;;;21.48;16.75;;;17.60;99.90;;;;;;5051022;28;20047;-74
2022/09/10 08:12:38;;;;;;;25.75;17.17;;;17.40;99.90;;;;;;5049812;28;20090;-74
2022/09/10 08:15:08;;;;;;;23.70;15.90;;;17.30;99.90;;;;;;5050745;28;20060;-74
2022/09/10 08:17:35;;;;;;;24.70;16.48;;;17.30;99.90;;;;;;5050934;28;20059;-74
2022/09/10 08:20:06;;;;;;;20.98;14.98;;;17.70;99.90;;;;;;5050963;28;20091;-74
2022/09/10 08:22:33;;;;;;;23.50;15.93;;;17.30;99.90;;;;;;5049910;28;20037;-73
2022/09/10 08:24:59;;;;;;;25.42;16.20;;;17.60;99.90;;;;;;5058912;28;20044;-73
2022/09/10 08:27:25;;;;;;;25.30;16.13;;;18.00;99.90;;;;;;5056639;28;20037;-73
2022/09/10 08:29:52;;;;;;;23.63;13.73;;;17.90;99.90;;;;;;5052737;28;20578;-73
2022/09/10 08:32:17;;;;;;;26.33;14.27;;;17.70;99.90;;;;;;5054369;28;20114;-72
2022/09/10 08:34:43;;;;;;;24.08;13.57;;;17.80;99.90;;;;;;5052247;28;20348;-73
2022/09/10 08:37:09;;;;;;;22.58;14.48;;;17.90;99.90;;;;;;5052188;28;20036;-73
2022/09/10 08:39:34;;;;;;;20.52;13.98;;;17.70;99.90;;;;;;5036045;28;20064;-73
2022/09/10 08:42:23;;;;;;;23.42;13.95;;;17.70;99.90;;;;;;5035894;28;20053;-73
2022/09/10 08:44:57;;;;;;;22.25;13.73;;;17.90;99.90;;;;;;5054354;28;20041;-73
2022/09/10 08:47:39;;;;;;;24.15;15.27;;;18.10;99.90;;;;;;5052851;28;20045;-73
2022/09/10 08:50:15;;;;;;;21.35;14.43;;;18.20;99.90;;;;;;5054147;28;20459;-73
2022/09/10 08:52:44;;;;;;;20.35;12.13;;;18.50;99.90;;;;;;5052948;28;20160;-73
2022/09/10 08:55:09;;;;;;;22.65;14.20;;;18.40;99.90;;;;;;5052815;28;20040;-73
2022/09/10 08:57:53;;;;;;;21.58;14.02;;;18.50;99.90;;;;;;5054048;28;20495;-73
2022/09/10 09:00:22;;;;;;;18.80;12.05;;;18.70;99.90;;;;;;5052699;28;20045;-73
2022/09/10 09:03:09;;;;;;;19.48;12.43;;;18.60;99.90;;;;;;5052636;28;20040;-73
2022/09/10 09:05:47;;;;;;;18.52;11.35;;;18.90;99.90;;;;;;5052521;28;20083;-73
2022/09/10 09:08:17;;;;;;;15.07;11.13;;;18.70;99.90;;;;;;5052540;28;20077;-74
2022/09/10 09:11:04;;;;;;;16.70;11.52;;;19.70;99.90;;;;;;5036011;28;20051;-73
2022/09/10 09:13:45;;;;;;;19.63;12.48;;;18.50;99.90;;;;;;5053683;28;20045;-73
2022/09/10 09:16:32;;;;;;;15.88;11.40;;;19.50;99.90;;;;;;5052529;28;20037;-74
2022/09/10 09:19:04;;;;;;;21.38;11.85;;;18.60;99.90;;;;;;5053495;28;20518;-73
2022/09/10 09:21:38;;;;;;;15.82;11.23;;;18.50;99.90;;;;;;5053548;28;20036;-74
2022/09/10 09:24:16;;;;;;;15.00;11.70;;;18.50;99.90;;;;;;5052022;28;20045;-73
2022/09/10 09:26:46;;;;;;;14.23;11.15;;;19.10;99.90;;;;;;5052038;28;20072;-73
2022/09/10 09:29:24;;;;;;;16.17;10.77;;;18.50;99.90;;;;;;5035524;28;20068;-73
2022/09/10 09:31:56;;;;;;;16.02;10.50;;;18.90;99.90;;;;;;5053412;28;20037;-74
2022/09/10 09:34:33;;;;;;;15.20;11.55;;;19.00;99.90;;;;;;5051717;28;20072;-74
2022/09/10 09:37:03;;;;;;;14.88;11.30;;;18.70;99.90;;;;;;5051549;28;20111;-73
2022/09/10 09:39:47;;;;;;;15.40;11.13;;;19.10;99.90;;;;;;5052131;28;20236;-73
2022/09/10 09:42:37;;;;;;;15.18;10.50;;;19.90;99.90;;;;;;5052757;28;20528;-73
2022/09/10 09:45:17;;;;;;;11.88;8.18;;;19.00;99.90;;;;;;5051599;28;20048;-73
2022/09/10 09:47:48;;;;;;;12.35;8.32;;;19.20;99.90;;;;;;5051785;28;20044;-73
2022/09/10 09:50:14;;;;;;;10.90;8.32;;;19.00;99.90;;;;;;5051999;28;20402;-73
2022/09/10 09:52:42;;;;;;;15.60;10.85;;;19.10;99.90;;;;;;5051544;28;20502;-73
2022/09/10 09:55:22;;;;;;;16.25;10.02;;;19.20;99.90;;;;;;5052907;28;20132;-74
2022/09/10 09:58:09;;;;;;;14.30;9.63;;;18.70;99.90;;;;;;5052947;28;20041;-74
2022/09/10 10:00:36;;;;;;;12.27;9.05;;;18.70;99.90;;;;;;5035254;28;20250;-74
2022/09/10 10:03:16;;;;;;;16.33;9.00;;;18.60;99.90;;;;;;5035086;28;20451;-73
2022/09/10 10:05:42;;;;;;;13.13;9.48;;;18.80;99.90;;;;;;5051459;28;20391;-74
2022/09/10 10:08:54;;;;;;;13.90;10.05;;;19.00;99.90;;;;;;5051293;28;20048;-73
2022/09/10 10:11:21;;;;;;;14.10;8.07;;;18.80;99.90;;;;;;5034626;28;20045;-73
2022/09/10 10:13:50;;;;;;;10.05;8.25;;;18.90;99.90;;;;;;5052626;28;20507;-73
2022/09/10 10:16:34;;;;;;;11.95;8.90;;;20.00;99.90;;;;;;5034806;28;20083;-73
2022/09/10 10:19:00;;;;;;;13.60;8.52;;;19.10;99.90;;;;;;5051106;28;20491;-73
2022/09/10 10:21:35;;;;;;;9.77;7.75;;;19.40;99.90;;;;;;5051086;28;20048;-73
2022/09/10 10:24:02;;;;;;;14.00;9.13;;;19.00;99.90;;;;;;5034219;28;20052;-74
2022/09/10 10:26:35;;;;;;;14.38;8.55;;;19.10;99.90;;;;;;5051008;28;20124;-74
2022/09/10 10:29:19;;;;;;;14.85;9.65;;;19.80;99.90;;;;;;5052142;28;20040;-73
2022/09/10 10:31:49;;;;;;;16.17;9.85;;;19.30;99.90;;;;;;5052315;28;20116;-74
2022/09/10 10:34:44;;;;;;;16.27;9.80;;;19.60;99.90;;;;;;5051942;28;20500;-75
2022/09/10 10:37:28;;;;;;;13.68;9.75;;;20.60;99.90;;;;;;5017987;28;20052;-75
2022/09/10 10:40:13;;;;;;;13.43;9.70;;;19.30;99.90;;;;;;5033870;28;20041;-72
2022/09/10 10:42:52;;;;;;;15.70;10.20;;;19.30;99.90;;;;;;5052298;28;20041;-73
2022/09/10 10:45:24;;;;;;;15.52;9.85;;;19.50;99.90;;;;;;5050493;28;20090;-74
2022/09/10 10:48:29;;;;;;;16.88;9.55;;;19.90;99.90;;;;;;5050070;28;20494;-74
2022/09/10 10:51:08;;;;;;;14.88;10.13;;;19.60;99.90;;;;;;4970826;28;20049;-74
2022/09/10 10:54:19;;;;;;;12.70;9.55;;;19.60;99.90;;;;;;5038433;28;20057;-74
2022/09/10 10:57:30;;;;;;;14.43;9.75;;;19.40;99.90;;;;;;5050485;28;20032;-74
2022/09/10 11:00:05;;;;;;;15.48;10.02;;;19.40;99.90;;;;;;5027198;28;20052;-74
2022/09/10 11:02:53;;;;;;;13.63;8.55;;;19.50;99.90;;;;;;5034245;28;20080;-74
2022/09/10 11:05:34;;;;;;;15.60;9.77;;;19.60;99.90;;;;;;5050577;28;20461;-74
2022/09/10 11:08:13;;;;;;;16.13;9.10;;;19.40;99.90;;;;;;5050629;28;20040;-74
2022/09/10 11:10:53;;;;;;;15.55;10.23;;;19.50;99.90;;;;;;5050872;28;20048;-73
2022/09/10 11:13:18;;;;;;;14.43;8.48;;;19.50;99.90;;;;;;5033710;28;20466;-74
2022/09/10 11:15:54;;;;;;;17.50;9.00;;;19.60;99.90;;;;;;5050033;28;20204;-74
2022/09/10 11:18:41;;;;;;;14.63;7.30;;;20.00;99.90;;;;;;5051614;28;20047;-74
2022/09/10 11:21:15;;;;;;;10.60;7.47;;;20.00;99.90;;;;;;5050358;28;20037;-74
2022/09/10 11:24:11;;;;;;;10.02;6.65;;;19.90;99.90;;;;;;5050112;28;20033;-74
2022/09/10 11:26:45;;;;;;;8.07;5.53;;;20.20;99.90;;;;;;5051500;28;20509;-74
2022/09/10 11:29:49;;;;;;;9.15;6.45;;;20.40;99.90;;;;;;5123732;22;20044;-80
2022/09/10 11:32:45;;;;;;;10.60;7.80;;;20.10;99.90;;;;;;5039196;28;20040;-80
2022/09/10 11:35:32;;;;;;;11.73;7.25;;;19.80;99.90;;;;;;5052724;28;20083;-79
2022/09/10 11:38:34;;;;;;;13.10;7.65;;;19.90;99.90;;;;;;5052364;28;20041;-81
2022/09/10 11:41:27;;;;;;;16.33;7.28;;;20.20;99.90;;;;;;5050762;28;20482;-79
2022/09/10 11:44:48;;;;;;;10.30;7.37;;;20.70;99.90;;;;;;5034922;28;20510;-79
2022/09/10 11:47:55;;;;;;;8.07;6.10;;;20.40;99.90;;;;;;5048920;28;20055;-79
2022/09/10 11:50:30;;;;;;;10.48;6.40;;;20.60;99.90;;;;;;5052449;28;20044;-79
2022/09/10 11:53:06;;;;;;;7.88;6.07;;;20.70;99.90;;;;;;5052438;28;20049;-79
2022/09/10 11:55:43;;;;;;;13.77;6.97;;;20.70;99.90;;;;;;5050991;28;20163;-80
2022/09/10 11:58:40;;;;;;;11.15;7.28;;;20.70;99.90;;;;;;5051077;28;20037;-79
2022/09/10 12:01:17;;;;;;;11.23;6.82;;;20.10;99.90;;;;;;5023772;28;20498;-78
2022/09/10 12:04:25;;;;;;;14.40;8.60;;;20.50;99.90;;;;;;5056435;28;20083;-80
2022/09/10 12:07:10;;;;;;;8.98;6.32;;;20.30;99.90;;;;;;5045324;28;20048;-80
2022/09/10 12:09:53;;;;;;;11.38;7.88;;;20.60;99.90;;;;;;5056574;28;20417;-79
2022/09/10 12:12:30;;;;;;;10.93;7.47;;;20.70;99.90;;;;;;5055968;28;20118;-79
2022/09/10 12:14:59;;;;;;;9.80;6.05;;;20.50;99.90;;;;;;5054820;28;20478;-78
2022/09/10 12:17:28;;;;;;;10.20;6.45;;;20.50;99.90;;;;;;5056339;28;20037;-79
2022/09/10 12:20:02;;;;;;;10.68;7.60;;;20.20;99.90;;;;;;5038187;28;20115;-80
2022/09/10 12:22:40;;;;;;;11.73;6.88;;;20.00;99.90;;;;;;5054831;28;20056;-80
2022/09/10 12:25:15;;;;;;;11.65;6.97;;;20.50;99.90;;;;;;5056257;28;20060;-80
2022/09/10 12:27:55;;;;;;;7.90;5.15;;;20.50;99.90;;;;;;5054629;28;20490;-79
2022/09/10 12:30:27;;;;;;;12.27;7.05;;;20.80;99.90;;;;;;5054387;28;20490;-79
2022/09/10 12:33:05;;;;;;;12.05;6.47;;;20.70;99.90;;;;;;5055395;28;20482;-80
2022/09/10 12:35:31;;;;;;;11.85;8.05;;;20.80;99.90;;;;;;5055553;28;20037;-80
2022/09/10 12:38:34;;;;;;;14.38;7.40;;;20.80;99.90;;;;;;5056481;28;20406;-79
2022/09/10 12:41:07;;;;;;;9.23;6.63;;;21.20;99.90;;;;;;5055398;28;20087;-80
2022/09/10 12:43:39;;;;;;;11.05;5.78;;;21.50;99.90;;;;;;5055378;28;20068;-80
2022/09/10 12:46:07;;;;;;;9.73;5.90;;;21.80;99.90;;;;;;5055232;28;20047;-79
2022/09/10 12:48:55;;;;;;;13.90;7.65;;;23.70;99.90;;;;;;5056432;28;20049;-80
2022/09/10 12:51:55;;;;;;;11.43;7.90;;;21.70;99.90;;;;;;5055489;28;20041;-79
2022/09/10 12:54:40;;;;;;;12.07;9.32;;;21.30;99.90;;;;;;5056115;28;20049;-81
2022/09/10 12:57:26;;;;;;;16.75;9.93;;;20.60;99.90;;;;;;5055910;28;20087;-79